createdAt,value
2023-03-03T00:01:11.717Z,80.57
2023-03-03T00:06:14.844Z,80.90
2023-03-03T00:11:17.668Z,80.49
2023-03-03T00:16:31.742Z,80.42
2023-03-03T00:21:41.171Z,80.62
2023-03-03T00:26:47.269Z,80.37
2023-03-03T00:31:49.247Z,80.75
2023-03-03T00:36:54.993Z,80.37
2023-03-03T00:42:18.386Z,80.36
2023-03-03T00:47:28.198Z,80.54
2023-03-03T00:52:38.399Z,81.09
2023-03-03T00:57:40.073Z,81.19
2023-03-03T01:02:42.102Z,81.30
2023-03-03T01:07:43.864Z,81.33
2023-03-03T01:12:45.852Z,81.18
2023-03-03T01:17:47.633Z,80.78
2023-03-03T01:22:49.558Z,80.42
2023-03-03T01:27:51.210Z,80.97
2023-03-03T01:32:53.164Z,81.37
2023-03-03T01:37:54.848Z,81.35
2023-03-03T01:42:59.947Z,81.79
2023-03-03T01:48:04.634Z,81.80
2023-03-03T01:53:13.520Z,81.28
2023-03-03T01:58:34.142Z,80.88
2023-03-03T02:03:35.905Z,80.63
2023-03-03T02:08:45.577Z,81.25
2023-03-03T02:13:47.493Z,81.43
2023-03-03T02:18:49.407Z,81.59
2023-03-03T02:24:18.131Z,82.49
2023-03-03T02:29:21.148Z,82.17
2023-03-03T02:34:23.307Z,82.11
2023-03-03T02:39:26.906Z,82.13
2023-03-03T02:44:31.170Z,81.87
2023-03-03T02:49:35.911Z,82.18
2023-03-03T02:54:38.572Z,82.07
2023-03-03T02:59:40.329Z,81.90
2023-03-03T03:04:45.294Z,81.87
2023-03-03T03:09:50.577Z,82.02
2023-03-03T03:14:52.486Z,82.15
2023-03-03T03:19:54.586Z,82.30
2023-03-03T03:24:56.969Z,82.25
2023-03-03T03:29:58.803Z,82.03
2023-03-03T03:35:02.541Z,82.05
2023-03-03T03:40:05.672Z,82.27
2023-03-03T03:45:08.162Z,82.25
2023-03-03T03:50:11.092Z,82.19
2023-03-03T03:55:13.208Z,82.39
2023-03-03T04:00:15.653Z,81.68
2023-03-03T04:05:20.504Z,81.43
2023-03-03T04:10:22.568Z,81.49
2023-03-03T04:15:24.836Z,82.10
2023-03-03T04:20:26.812Z,82.14
2023-03-03T04:25:29.453Z,82.61
2023-03-03T04:30:31.351Z,83.61
2023-03-03T04:35:33.643Z,83.81
2023-03-03T04:40:35.508Z,83.67
2023-03-03T04:45:37.829Z,83.59
2023-03-03T04:50:39.979Z,83.23
2023-03-03T04:55:42.115Z,83.67
2023-03-03T05:00:44.239Z,82.91
2023-03-03T05:05:47.459Z,82.77
2023-03-03T05:10:53.747Z,83.66
2023-03-03T05:15:56.608Z,85.78
2023-03-03T05:20:58.600Z,85.69
2023-03-03T05:26:00.310Z,87.23
2023-03-03T05:31:02.068Z,88.46
2023-03-03T05:36:04.017Z,88.43
2023-03-03T05:41:05.645Z,88.13
2023-03-03T05:46:08.225Z,87.82
2023-03-03T05:51:09.949Z,87.43
2023-03-03T05:56:11.642Z,87.05
2023-03-03T06:01:13.337Z,86.76
2023-03-03T06:06:17.003Z,86.34
2023-03-03T06:11:19.411Z,86.45
2023-03-03T06:16:21.706Z,86.44
2023-03-03T06:21:23.499Z,86.29
2023-03-03T06:26:25.291Z,85.99
2023-03-03T06:31:32.180Z,85.64
2023-03-03T06:36:33.997Z,85.29
2023-03-03T06:41:43.890Z,84.69
2023-03-03T06:46:45.567Z,84.49
2023-03-03T06:51:47.417Z,84.67
2023-03-03T06:56:50.298Z,85.04
2023-03-03T07:01:52.540Z,85.02
2023-03-03T07:06:55.907Z,84.98
2023-03-03T07:12:12.627Z,85.17
2023-03-03T07:17:21.223Z,85.53
2023-03-03T07:22:27.764Z,85.40
2023-03-03T07:27:31.544Z,85.18
2023-03-03T07:32:44.217Z,84.92
2023-03-03T07:37:46.132Z,85.03
2023-03-03T07:42:48.172Z,85.31
2023-03-03T07:48:09.293Z,85.69
2023-03-03T07:53:30.020Z,85.61
2023-03-03T07:58:39.186Z,85.72
2023-03-03T08:03:42.522Z,85.72
2023-03-03T08:08:45.652Z,85.92
2023-03-03T08:13:47.560Z,86.02
2023-03-03T08:18:51.536Z,86.22
2023-03-03T08:23:54.048Z,85.78
2023-03-03T08:28:55.867Z,85.59
2023-03-03T08:33:57.641Z,85.45
2023-03-03T08:38:59.345Z,85.73
2023-03-03T08:44:01.190Z,86.24
2023-03-03T08:49:03.289Z,85.99
2023-03-03T08:54:05.278Z,85.98
2023-03-03T08:59:07.005Z,85.74
2023-03-03T09:04:09.120Z,85.86
2023-03-03T09:09:11.105Z,85.67
2023-03-03T09:14:18.713Z,85.01
2023-03-03T09:19:32.631Z,84.78
2023-03-03T09:24:36.512Z,84.30
2023-03-03T09:29:38.301Z,84.15
2023-03-03T09:34:42.302Z,83.59
2023-03-03T09:39:46.268Z,83.32
2023-03-03T09:45:22.219Z,83.46
2023-03-03T09:50:45.591Z,83.13
2023-03-03T09:56:12.529Z,82.08
2023-03-03T10:01:32.651Z,82.20
2023-03-03T10:06:45.301Z,82.95
2023-03-03T10:12:25.394Z,83.17
2023-03-03T10:17:41.752Z,83.08
2023-03-03T10:22:52.831Z,82.79
2023-03-03T10:28:13.326Z,82.86
2023-03-03T10:33:18.120Z,82.13
2023-03-03T10:38:55.657Z,82.47
2023-03-03T10:44:29.473Z,82.48
2023-03-03T10:49:59.973Z,82.17
2023-03-03T10:55:21.896Z,83.01
2023-03-03T11:00:36.971Z,82.72
2023-03-03T11:05:58.225Z,82.81
2023-03-03T11:11:12.239Z,82.80
2023-03-03T11:16:38.318Z,82.14
2023-03-03T11:22:07.663Z,81.61
2023-03-03T11:27:37.916Z,81.26
2023-03-03T11:33:04.711Z,79.71
2023-03-03T11:38:30.809Z,80.28
2023-03-03T11:43:45.443Z,80.16
2023-03-03T11:49:15.562Z,79.99
2023-03-03T11:54:34.326Z,79.72
2023-03-03T11:59:51.852Z,80.33
2023-03-03T12:05:05.302Z,79.94
2023-03-03T12:10:19.203Z,79.84
2023-03-03T12:15:37.121Z,80.22
2023-03-03T12:21:00.518Z,79.92
2023-03-03T12:26:15.690Z,79.78
2023-03-03T12:31:20.808Z,79.17
2023-03-03T12:36:40.670Z,78.67
2023-03-03T12:41:59.001Z,78.25
2023-03-03T12:47:10.397Z,78.53
2023-03-03T12:52:57.637Z,78.13
2023-03-03T12:58:24.286Z,78.21
2023-03-03T13:03:56.184Z,77.24
2023-03-03T13:09:03.831Z,78.03
2023-03-03T13:14:42.420Z,77.64
2023-03-03T13:20:00.935Z,77.50
2023-03-03T13:25:30.208Z,77.01
2023-03-03T13:30:35.844Z,76.51
2023-03-03T13:36:14.031Z,76.39
2023-03-03T13:41:43.684Z,75.70
2023-03-03T13:47:06.807Z,74.82
2023-03-03T13:52:16.119Z,74.81
2023-03-03T13:57:36.493Z,75.02
2023-03-03T14:03:18.178Z,74.50
2023-03-03T14:08:44.005Z,73.85
2023-03-03T14:14:10.561Z,73.90
2023-03-03T14:19:18.285Z,73.57
2023-03-03T14:24:23.186Z,71.81
2023-03-03T14:29:27.658Z,72.75
2023-03-03T14:34:57.580Z,72.99
2023-03-03T14:40:16.168Z,73.24
2023-03-03T14:45:35.816Z,73.43
2023-03-03T14:50:40.364Z,73.79
2023-03-03T14:55:45.367Z,73.14
2023-03-03T15:00:47.387Z,73.13
2023-03-03T15:05:51.415Z,73.36
2023-03-03T15:10:53.172Z,73.80
2023-03-03T15:16:16.762Z,74.03
2023-03-03T15:21:27.204Z,74.69
2023-03-03T15:26:50.286Z,74.78
2023-03-03T15:31:58.038Z,74.65
2023-03-03T15:37:14.514Z,74.89
2023-03-03T15:42:27.148Z,75.85
2023-03-03T15:47:53.665Z,76.61
2023-03-03T15:53:11.664Z,76.52
2023-03-03T15:58:25.178Z,76.81
2023-03-03T16:03:31.805Z,77.24
2023-03-03T16:08:51.614Z,77.30
2023-03-03T16:14:24.142Z,77.21
2023-03-03T16:19:39.747Z,77.33
2023-03-03T16:25:06.228Z,77.54
2023-03-03T16:30:26.386Z,77.97
2023-03-03T16:35:42.980Z,78.36
2023-03-03T16:41:00.215Z,78.65
2023-03-03T16:46:21.379Z,78.74
2023-03-03T16:51:56.918Z,78.96
2023-03-03T16:57:14.416Z,79.03
2023-03-03T17:02:41.134Z,79.16
2023-03-03T17:08:14.891Z,79.46
2023-03-03T17:13:48.395Z,79.66
2023-03-03T17:19:23.998Z,79.86
2023-03-03T17:25:27.260Z,80.12
2023-03-03T17:30:50.236Z,80.38
2023-03-03T17:36:10.594Z,80.18
2023-03-03T17:41:15.093Z,80.27
2023-03-03T17:46:51.586Z,80.39
2023-03-03T17:52:21.358Z,80.53
2023-03-03T17:57:46.366Z,81.32
2023-03-03T18:03:22.839Z,81.12
2023-03-03T18:08:29.420Z,80.95
2023-03-03T18:13:48.130Z,80.65
2023-03-03T18:19:08.413Z,80.72
2023-03-03T18:24:25.324Z,80.74
2023-03-03T18:29:28.572Z,80.62
2023-03-03T18:34:40.849Z,80.84
2023-03-03T18:39:48.593Z,80.71
2023-03-03T18:44:50.334Z,80.83
2023-03-03T18:50:31.923Z,80.65
2023-03-03T18:55:42.739Z,80.47
2023-03-03T19:00:52.385Z,80.44
2023-03-03T19:05:57.657Z,80.53
2023-03-03T19:11:01.525Z,80.38
2023-03-03T19:16:08.142Z,80.61
2023-03-03T19:21:12.852Z,80.43
2023-03-03T19:26:20.226Z,80.22
2023-03-03T19:31:39.373Z,80.34
2023-03-03T19:37:13.675Z,80.17
2023-03-03T19:42:21.568Z,80.76
2023-03-03T19:47:56.236Z,80.69
2023-03-03T19:53:13.938Z,80.84
2023-03-03T19:58:29.806Z,80.93
2023-03-03T20:03:58.414Z,80.92
2023-03-03T20:09:31.526Z,81.07
2023-03-03T20:14:44.431Z,81.20
2023-03-03T20:19:56.476Z,81.24
2023-03-03T20:25:23.862Z,81.02
2023-03-03T20:31:09.988Z,81.04
2023-03-03T20:36:26.605Z,81.05
2023-03-03T20:41:40.459Z,80.88
2023-03-03T20:47:10.882Z,81.20
2023-03-03T20:52:45.774Z,81.14
2023-03-03T20:58:15.839Z,80.90
2023-03-03T21:03:29.858Z,81.10
2023-03-03T21:08:56.947Z,81.30
2023-03-03T21:14:01.280Z,81.19
2023-03-03T21:19:10.034Z,81.12
2023-03-03T21:24:15.261Z,80.97
2023-03-03T21:29:24.024Z,80.98
2023-03-03T21:34:31.889Z,81.02
2023-03-03T21:39:41.964Z,81.17
2023-03-03T21:44:50.937Z,81.10
2023-03-03T21:49:53.403Z,80.97
2023-03-03T21:54:55.218Z,80.71
2023-03-03T21:59:57.138Z,80.64
2023-03-03T22:04:59.536Z,80.70
2023-03-03T22:10:03.674Z,80.86
2023-03-03T22:15:08.534Z,80.83
2023-03-03T22:20:12.022Z,80.63
2023-03-03T22:25:13.750Z,80.57
2023-03-03T22:30:16.193Z,80.92
2023-03-03T22:35:18.972Z,80.57
2023-03-03T22:40:20.733Z,80.73
2023-03-03T22:45:52.748Z,80.62
2023-03-03T22:51:24.214Z,80.85
2023-03-03T22:56:29.286Z,81.18
2023-03-03T23:01:31.210Z,80.97
2023-03-03T23:06:32.945Z,81.25
2023-03-03T23:11:34.709Z,81.34
2023-03-03T23:16:36.457Z,81.69
2023-03-03T23:21:38.195Z,81.36
2023-03-03T23:26:39.867Z,81.40
2023-03-03T23:31:41.751Z,81.49
2023-03-03T23:36:43.465Z,81.41
2023-03-03T23:41:45.323Z,81.17
2023-03-03T23:46:47.105Z,81.35
2023-03-03T23:51:48.912Z,81.46
2023-03-03T23:56:50.873Z,81.40
